Data for 09/07/2006

Time Sea-Level Adjusted Pressure Absolute Pressure Temperature Relative Humidity Dew Point   
(mb) (inHg) (mb) (inHg) (C) (F) (%) (C) (F)
00:05 1021 30.15 850 25.1 16.7 62 40 3 37.5
00:10 1021 30.15 850 25.1 16.6 61.8 36 1.4 34.5
00:15 1021 30.15 850 25.1 15.7 60.2 43 3.1 37.7
00:20 1021 30.15 850 25.1 15.3 59.6 40 1.9 35.4
00:25 1021 30.15 850 25.1 15.3 59.5 40 1.9 35.4
00:30 1021 30.15 850 25.1 15.4 59.7 39 1.5 34.7
00:35 1021 30.15 850 25.1 15.3 59.6 39 1.4 34.6
00:40 1021 30.15 850 25.1 15.5 59.9 44 3.5 38.4
00:45 1021 30.15 850 25.1 15.6 60.1 35 0.4 32.7
00:50 1021 30.15 850 25.1 15.7 60.2 43 3.3 37.9
00:55 1021 30.15 850 25.1 15.5 59.8 38 1.2 34.2
01:00 1021 30.15 850 25.1 15.4 59.7 44 3.3 37.9
01:05 1021 30.15 850 25.1 15.1 59.1 39 1.5 34.6
01:10 1021 30.15 850 25.1 15.1 59.1 40 1.6 34.8
01:15 1021 30.15 850 25.1 15.6 60 34 -0.1 31.9
01:20 1021 30.15 850 25.1 16 60.8 42 3.2 37.7
01:25 1021 30.15 850 25.1 16.1 60.9 35 0.6 33
01:30 1021 30.15 850 25.1 15.8 60.4 38 1.5 34.6
01:35 1021 30.15 850 25.1 15.5 60 37 0.8 33.5
01:40 1021 30.15 850 25.1 15.6 60 39 1.6 35
01:45 1021 30.15 850 25.1 15.7 60.2 35 0.5 32.9
01:50 1021 30.15 850 25.1 16 60.8 34 0.3 32.6
01:55 1021 30.15 850 25.1 16.1 61 35 0.7 33.2
02:00 1021 30.15 850 25.1 15.8 60.4 35 0.3 32.5
02:05 1021 30.15 850 25.1 15.9 60.6 42 3 37.4
02:10 1021 30.15 850 25.1 15.4 59.7 39 1.4 34.6
02:15 1021 30.15 850 25.1 14.9 58.9 45 3.1 37.5
02:20 1021 30.15 850 25.1 15.1 59.1 37 0.6 33.2
02:25 1021 30.15 850 25.1 15.3 59.6 37 0.9 33.5
02:30 1021 30.15 850 25.1 15.2 59.4 37 0.7 33.3
02:35 1021 30.15 850 25.1 15.5 59.9 34 -0.3 31.4
02:40 1021 30.15 850 25.1 16.6 61.9 33 0.5 32.9
02:45 1021 30.15 850 25.1 15.6 60.1 38 1.6 34.8
02:50 1021 30.15 850 25.1 14.7 58.5 38 0.6 33.1
02:55 1021 30.15 850 25.1 15.3 59.5 35 0.1 32.1
03:00 1021 30.15 850 25.1 15.4 59.6 35 0.2 32.3
03:05 1021 30.15 850 25.1 15.4 59.7 36 0.7 33.2
03:10 1021 30.15 850 25.1 14.8 58.7 38 0.9 33.5
03:15 1021 30.15 850 25.1 14.4 57.9 40 0.9 33.7
03:20 1021 30.15 850 25.1 14.3 57.8 40 1.1 34
03:25 1021 30.15 850 25.1 14.3 57.8 39 0.7 33.2
03:30 1021 30.15 850 25.1 14.6 58.3 40 1.3 34.3
03:35 1021 30.15 850 25.1 14.7 58.4 38 0.8 33.4
03:40 1021 30.15 850 25.1 14.8 58.6 39 1.1 33.9
03:45 1021 30.15 850 25.1 15.1 59.1 36 0.4 32.6
03:50 1021 30.15 850 25.1 14.9 58.9 38 0.9 33.6
03:55 1021 30.15 850 25.1 14.8 58.6 45 2.9 37.2
04:00 1021 30.15 850 25.1 14.2 57.5 41 1.2 34.2
04:05 1021 30.15 850 25.1 13.8 56.8 41 1 33.8
04:10 1021 30.15 850 25.1 13.6 56.5 41 0.8 33.4
04:15 1021 30.15 850 25.1 14.1 57.4 38 0.1 32.2
04:20 1021 30.15 850 25.1 14.6 58.2 37 0.3 32.5
04:25 1020 30.12 850 25.1 14.7 58.5 38 0.5 32.8
04:30 1020 30.12 850 25.1 14.4 57.8 39 0.7 33.2
04:35 1020 30.12 850 25.1 14.4 58 37 -0.1 31.7
04:40 1020 30.12 850 25.1 14.5 58 40 1.1 33.9
04:45 1021 30.15 850 25.1 14.1 57.5 39 0.5 32.9
04:50 1021 30.15 850 25.1 14.6 58.3 37 0.3 32.5
04:55 1021 30.15 850 25.1 14.7 58.5 38 0.7 33.3
05:00 1021 30.15 850 25.1 14.6 58.3 37 0.3 32.5
05:05 1021 30.15 850 25.1 15.1 59.2 35 0 32
05:10 1021 30.15 850 25.1 15.4 59.6 35 -0 32
05:15 1020 30.12 850 25.1 15.4 59.6 35 0.3 32.5
05:20 1020 30.12 850 25.1 15.1 59.1 36 0.2 32.3
05:25 1020 30.12 850 25.1 14.8 58.6 39 1.2 34.1
05:30 1020 30.12 850 25.1 13.9 57 43 1.4 34.6
05:35 1020 30.12 850 25.1 14.2 57.5 39 0.3 32.6
05:40 1020 30.12 850 25.1 13.9 57.1 43 1.6 34.8
05:45 1020 30.12 850 25.1 13.2 55.7 46 2 35.5
05:50 1020 30.12 850 25.1 12.7 54.9 44 0.8 33.5
05:55 1020 30.12 850 25.1 13.6 56.5 42 1 33.7
06:00 1020 30.12 850 25.1 13.4 56 44 1.4 34.6
06:05 1020 30.12 850 25.1 13.2 55.8 42 0.5 32.9
06:10 1020 30.12 850 25.1 13.8 56.8 40 0.4 32.8
06:15 1020 30.12 850 25.1 13.9 57.1 42 1.2 34.1
06:20 1020 30.12 850 25.1 13.3 56 43 1 33.9
06:25 1020 30.12 850 25.1 13.6 56.6 40 0.5 32.9
06:30 1020 30.12 850 25.1 13.6 56.5 42 1.1 34.1
06:35 1020 30.12 850 25.1 13.5 56.2 42 1 33.7
06:40 1020 30.12 850 25.1 13.6 56.4 42 0.9 33.7
06:45 1020 30.12 850 25.1 13.4 56.1 45 1.7 35.1
06:50 1020 30.12 850 25.1 13 55.4 43 0.8 33.5
06:55 1020 30.12 850 25.1 13 55.4 43 0.9 33.6
07:00 1021 30.15 850 25.1 12.9 55.3 43 0.9 33.6
07:05 1021 30.15 850 25.1 12.9 55.2 44 0.9 33.6
07:10 1021 30.15 850 25.1 13.1 55.5 42 0.4 32.8
07:15 1021 30.15 850 25.1 13.5 56.3 40 0.1 32.1
07:20 1021 30.15 850 25.1 14.1 57.3 38 -0 32
07:25 1021 30.15 850 25.1 14.2 57.5 42 1.5 34.7
07:30 1021 30.15 850 25.1 13.4 56 43 1 33.9
07:35 1021 30.15 850 25.1 13.1 55.6 44 1.2 34.2
07:40 1021 30.15 850 25.1 13.3 55.9 40 0.2 32.3
07:45 1021 30.15 850 25.1 13.5 56.3 41 0.5 33
07:50 1021 30.15 850 25.1 13.4 56.1 42 0.9 33.7
07:55 1021 30.15 850 25.1 13.1 55.6 42 0.6 33
08:00 1021 30.15 850 25.1 13.7 56.6 39 -0.1 31.8
08:05 1021 30.15 850 25.1 14.1 57.4 39 0.3 32.6
08:10 1021 30.15 850 25.1 13.8 56.9 40 0.5 32.9
08:15 1021 30.15 850 25.1 13.8 56.9 40 0.4 32.7
08:20 1021 30.15 850 25.1 13.9 57 38 0 32
08:25 1021 30.15 850 25.1 14 57.3 40 0.9 33.5
08:30 1021 30.15 850 25.1 13.6 56.5 43 1.4 34.5
08:35 1021 30.15 850 25.1 13 55.4 44 1.2 34.1
08:40 1021 30.15 850 25.1 13 55.3 43 0.7 33.2
08:45 1021 30.15 850 25.1 13.2 55.8 43 1 33.8
08:50 1021 30.15 850 25.1 13.3 55.9 42 0.6 33.1
08:55 1021 30.15 850 25.1 13.5 56.3 40 0.3 32.5
09:00 1021 30.15 850 25.1 13.9 56.9 43 1.5 34.6
09:05 1021 30.15 850 25.1 14 57.3 43 1.8 35.3
09:10 1021 30.15 850 25.1 14.1 57.3 45 2.3 36.2
09:15 1021 30.15 850 25.1 14.1 57.4 44 2.1 35.7
09:20 1021 30.15 850 25.1 14.5 58 44 2.4 36.3
09:25 1021 30.15 850 25.1 14.8 58.7 42 2.2 35.9
09:30 1021 30.15 850 25.1 15.4 59.6 47 4.1 39.4
09:35 1021 30.15 850 25.1 15.8 60.4 38 1.4 34.6
09:40 1021 30.15 850 25.1 15.8 60.4 42 3.1 37.5
09:45 1021 30.15 850 25.1 16 60.8 44 3.8 38.9
09:50 1021 30.15 850 25.1 16.4 61.6 37 2 35.5
09:55 1021 30.15 851 25.13 16.8 62.2 39 2.7 36.9
10:00 1021 30.15 851 25.13 17.1 62.7 38 2.8 37.1
10:05 1021 30.15 851 25.13 17.5 63.4 37 2.8 37
10:10 1021 30.15 851 25.13 17.5 63.4 34 1.4 34.5
10:15 1021 30.15 851 25.13 17.6 63.7 35 2 35.6
10:20 1021 30.15 851 25.13 18.4 65.1 34 2.5 36.5
10:25 1021 30.15 851 25.13 18.9 66 31 1.7 35
10:30 1021 30.15 851 25.13 19.3 66.8 32 2.4 36.4
10:35 1021 30.15 851 25.13 19.7 67.5 30 1.8 35.2
10:40 1021 30.15 850 25.1 19.9 67.9 30 2.1 35.7
10:45 1021 30.15 850 25.1 20.6 69 29 2.3 36.1
10:50 1021 30.15 850 25.1 20.7 69.3 30 2.5 36.5
10:55 1021 30.15 850 25.1 20.7 69.2 31 3.1 37.6
11:00 1021 30.15 850 25.1 20.9 69.5 27 1.3 34.3
11:05 1021 30.15 850 25.1 20.8 69.4 29 2.2 35.9
11:10 1021 30.15 850 25.1 21.8 71.3 25 1.3 34.3
11:15 1021 30.15 850 25.1 21.3 70.4 27 2 35.6
11:20 1021 30.15 850 25.1 21.3 70.3 27 1.7 35.1
11:25 1021 30.15 850 25.1 21.5 70.7 30 3.2 37.7
11:30 1021 30.15 850 25.1 20.9 69.6 28 1.9 35.5
11:35 1021 30.15 850 25.1 20.2 68.3 31 2.8 37
11:40 1021 30.15 850 25.1 20.2 68.4 29 1.8 35.3
11:45 1021 30.15 850 25.1 20.2 68.3 30 2.1 35.8
11:50 1021 30.15 850 25.1 20.7 69.2 30 2.5 36.5
11:55 1021 30.15 850 25.1 21 69.8 28 1.9 35.5
12:00 1021 30.15 850 25.1 21.4 70.4 28 2.3 36.2
12:05 1021 30.15 850 25.1 20.9 69.6 28 1.7 35.1
12:10 1021 30.15 850 25.1 20.8 69.5 28 2 35.7
12:15 1021 30.15 850 25.1 21.2 70.1 28 1.9 35.4
12:20 1020 30.12 850 25.1 21.3 70.4 28 2 35.6
12:25 1020 30.12 850 25.1 21.8 71.3 26 1.5 34.7
12:30 1020 30.12 850 25.1 22 71.7 27 2.4 36.2
12:35 1020 30.12 849 25.07 22.6 72.6 24 1.2 34.1
12:40 1020 30.12 849 25.07 23.3 73.9 22 0.6 33
12:45 1020 30.12 849 25.07 23 73.5 24 1.3 34.3
12:50 1020 30.12 849 25.07 23.2 73.7 23 1.3 34.3
12:55 1020 30.12 849 25.07 23.8 74.8 22 1.3 34.3
13:00 1020 30.12 849 25.07 24.2 75.6 23 1.9 35.4
13:05 1020 30.12 849 25.07 23.5 74.2 24 1.8 35.3
13:10 1020 30.12 849 25.07 23.1 73.5 23 1.2 34.2
13:15 1020 30.12 849 25.07 23.7 74.7 22 1.2 34.2
13:20 1020 30.12 849 25.07 24.3 75.7 21 1.1 33.9
13:25 1020 30.12 849 25.07 24.3 75.7 22 1.3 34.3
13:30 1020 30.12 849 25.07 24.8 76.7 21 1.4 34.6
13:35 1020 30.12 849 25.07 24.9 76.8 21 1.1 34
13:40 1020 30.12 849 25.07 24.7 76.5 21 1.2 34.2
13:45 1020 30.12 849 25.07 24.3 75.8 21 1 33.8
13:50 1020 30.12 849 25.07 24.4 76 22 1.3 34.4
13:55 1019 30.09 849 25.07 24.6 76.3 21 0.8 33.5
14:00 1019 30.09 849 25.07 25.3 77.6 21 1.7 35
14:05 1019 30.09 849 25.07 25.8 78.4 20 1.4 34.5
14:10 1019 30.09 849 25.07 26 78.7 19 0.9 33.7
14:15 1019 30.09 849 25.07 26.2 79.2 20 1.6 34.9
14:20 1019 30.09 848 25.04 26 78.9 20 1.8 35.2
14:25 1019 30.09 848 25.04 25.6 78 20 1.4 34.5
14:30 1019 30.09 848 25.04 25.5 77.8 20 1 33.8
14:35 1019 30.09 848 25.04 24.9 76.8 21 1.4 34.5
14:40 1019 30.09 848 25.04 25.6 78.1 19 0.8 33.4
14:45 1019 30.09 848 25.04 25.8 78.4 18 0.2 32.3
14:50 1019 30.09 848 25.04 25.4 77.8 18 -0.4 31.3
14:55 1019 30.09 848 25.04 25.7 78.3 19 0.6 33.1
15:00 1019 30.09 848 25.04 25.8 78.5 18 -0.3 31.4
15:05 1019 30.09 848 25.04 25.8 78.5 16 -2 28.4
15:10 1019 30.09 848 25.04 26.1 79 15 -2.2 28
15:15 1018 30.06 848 25.04 25.7 78.3 16 -2 28.3
15:20 1018 30.06 848 25.04 25.6 78 15 -2.9 26.8
15:25 1018 30.06 848 25.04 25.8 78.4 14 -3.1 26.5
15:30 1018 30.06 848 25.04 25.9 78.6 15 -2.4 27.8
15:35 1018 30.06 847 25.01 26 78.9 15 -1.9 28.6
15:40 1018 30.06 847 25.01 26 78.8 15 -2.4 27.6
15:45 1018 30.06 847 25.01 25.8 78.4 15 -2.2 28
15:50 1018 30.06 847 25.01 25.9 78.6 15 -2.2 28
15:55 1018 30.06 847 25.01 25.9 78.6 15 -2.1 28.3
16:00 1018 30.06 847 25.01 25.9 78.5 15 -2.1 28.1
16:05 1018 30.06 847 25.01 25.8 78.5 15 -2.7 27.2
16:10 1018 30.06 847 25.01 26 78.8 14 -3.4 25.9
16:15 1018 30.06 847 25.01 26 78.8 15 -2.7 27.2
16:20 1018 30.06 847 25.01 26 78.9 15 -2.3 27.8
16:25 1018 30.06 847 25.01 26.2 79.1 14 -3.1 26.5
16:30 1018 30.06 847 25.01 26 78.8 14 -3.4 25.9
16:35 1018 30.06 847 25.01 25.7 78.2 15 -3 26.7
16:40 1018 30.06 847 25.01 25.8 78.4 15 -2.6 27.3
16:45 1018 30.06 847 25.01 25.9 78.7 14 -3.1 26.4
16:50 1018 30.06 847 25.01 25.7 78.3 14 -3.2 26.3
16:55 1018 30.06 847 25.01 25.4 77.8 15 -2.8 26.9
17:00 1018 30.06 847 25.01 25.5 77.8 15 -3 26.6
17:05 1018 30.06 847 25.01 25.6 78.1 15 -2.9 26.8
17:10 1018 30.06 847 25.01 25.4 77.7 15 -3.1 26.5
17:15 1018 30.06 847 25.01 25.1 77.1 15 -3 26.5
17:20 1018 30.06 847 25.01 25.2 77.3 15 -3.3 26
17:25 1018 30.06 847 25.01 25.2 77.3 15 -3.2 26.3
17:30 1018 30.06 847 25.01 25.1 77.2 15 -3 26.6
17:35 1018 30.06 847 25.01 24.9 76.9 15 -3.4 25.9
17:40 1018 30.06 847 25.01 24.8 76.7 15 -3.5 25.7
17:45 1017 30.03 847 25.01 24.7 76.5 14 -3.9 25
17:50 1017 30.03 847 25.01 24.7 76.4 15 -3.8 25.2
17:55 1017 30.03 847 25.01 24.6 76.4 15 -3.6 25.5
18:00 1017 30.03 847 25.01 24.6 76.2 14 -4.3 24.2
18:05 1017 30.03 847 25.01 24.5 76.1 14 -4.3 24.2
18:10 1017 30.03 847 25.01 24.6 76.2 14 -4.4 24.1
18:15 1017 30.03 847 25.01 24.5 76 15 -3.9 25
18:20 1017 30.03 847 25.01 24.3 75.8 15 -4 24.9
18:25 1017 30.03 847 25.01 24.2 75.6 14 -4.3 24.2
18:30 1017 30.03 847 25.01 24.2 75.5 15 -3.9 24.9
18:35 1017 30.03 847 25.01 24.1 75.3 15 -4 24.8
18:40 1018 30.06 847 25.01 23.9 75.1 15 -3.9 25
18:45 1018 30.06 847 25.01 23.8 74.9 15 -3.8 25.1
18:50 1018 30.06 847 25.01 23.7 74.7 16 -3.7 25.3
18:55 1018 30.06 847 25.01 23.6 74.5 16 -3.8 25.1
19:00 1018 30.06 847 25.01 23.5 74.4 17 -2.9 26.8
19:05 1018 30.06 847 25.01 23.4 74.1 18 -2.2 28
19:10 1018 30.06 847 25.01 23.1 73.6 18 -2 28.4
19:15 1018 30.06 847 25.01 23 73.4 19 -1.9 28.7
19:20 1018 30.06 847 25.01 22.8 73.1 19 -1.9 28.6
19:25 1018 30.06 847 25.01 22.5 72.6 20 -1.6 29.2
19:30 1018 30.06 847 25.01 22.3 72.1 20 -1.9 28.6
19:35 1018 30.06 847 25.01 22.2 72 20 -1.8 28.8
19:40 1018 30.06 847 25.01 22 71.7 20 -1.7 28.9
19:45 1018 30.06 847 25.01 21.8 71.2 21 -1.4 29.5
19:50 1018 30.06 847 25.01 21.5 70.7 21 -1.3 29.7
19:55 1018 30.06 847 25.01 21.2 70.2 22 -1.3 29.6
20:00 1018 30.06 847 25.01 21.1 70 23 -0.7 30.7
20:05 1018 30.06 847 25.01 21.1 70 25 0.6 33.1
20:10 1018 30.06 847 25.01 21.2 70.1 23 -0.4 31.3
20:15 1018 30.06 847 25.01 20.8 69.4 23 -0.9 30.3
20:20 1018 30.06 847 25.01 20.5 68.9 25 -0.2 31.7
20:25 1018 30.06 847 25.01 20.3 68.5 24 -0.5 31.1
20:30 1018 30.06 847 25.01 20.2 68.3 25 -0.2 31.6
20:35 1018 30.06 847 25.01 19.7 67.5 26 -0 31.9
20:40 1018 30.06 847 25.01 19.8 67.6 27 0.3 32.6
20:45 1018 30.06 847 25.01 19.6 67.3 27 0.1 32.2
20:50 1018 30.06 847 25.01 19.3 66.8 32 2.3 36.1
20:55 1018 30.06 847 25.01 18.7 65.7 29 0.6 33.1
21:00 1018 30.06 848 25.04 18.5 65.3 30 0.5 33
21:05 1018 30.06 848 25.04 18.6 65.6 29 0.3 32.6
21:10 1018 30.06 848 25.04 18.7 65.7 29 0.3 32.5
21:15 1018 30.06 848 25.04 18.7 65.6 28 -0.2 31.6
21:20 1018 30.06 848 25.04 18.8 65.8 27 -0.7 30.8
21:25 1018 30.06 847 25.01 18.9 65.9 26 -0.7 30.8
21:30 1018 30.06 848 25.04 18.8 65.8 27 -0.6 30.9
21:35 1018 30.06 848 25.04 18.6 65.5 27 -0.6 30.9
21:40 1018 30.06 847 25.01 18.5 65.3 27 -0.5 31.1
21:45 1018 30.06 847 25.01 18.7 65.7 28 -0.3 31.5
21:50 1018 30.06 848 25.04 18.6 65.5 28 -0.2 31.7
21:55 1018 30.06 848 25.04 18.7 65.6 28 -0.1 31.7
22:00 1018 30.06 847 25.01 18.9 66 28 0 32.1
22:05 1018 30.06 847 25.01 19 66.2 28 0.2 32.4
22:10 1018 30.06 847 25.01 18.5 65.4 29 0.4 32.7
22:15 1018 30.06 847 25.01 18.1 64.5 30 0.6 33.1
22:20 1018 30.06 848 25.04 17.7 63.8 31 0.5 33
22:25 1018 30.06 848 25.04 17.7 63.8 31 0.3 32.6
22:30 1018 30.06 847 25.01 18.2 64.7 30 0.4 32.6
22:35 1018 30.06 847 25.01 18.6 65.6 29 0.5 32.9
22:40 1018 30.06 847 25.01 18.6 65.5 29 0.6 33.1
22:45 1018 30.06 847 25.01 18.4 65.2 30 0.6 33.1
22:50 1018 30.06 847 25.01 18 64.4 31 0.7 33.3
22:55 1018 30.06 847 25.01 17.4 63.2 32 0.7 33.3
23:00 1018 30.06 847 25.01 17.2 62.9 32 0.4 32.8
23:05 1018 30.06 847 25.01 17.2 63 32 0.4 32.6
23:10 1018 30.06 848 25.04 17.8 64 31 0.5 33
23:15 1018 30.06 848 25.04 18.1 64.5 31 0.7 33.2
23:20 1018 30.06 847 25.01 18.1 64.6 31 0.9 33.7
23:25 1018 30.06 847 25.01 18.2 64.7 30 0.7 33.2
23:30 1018 30.06 847 25.01 18.2 64.8 30 0.5 32.8
23:35 1018 30.06 847 25.01 18.5 65.2 29 0.3 32.6
23:40 1018 30.06 847 25.01 18.8 65.9 27 -0.3 31.5
23:45 1018 30.06 847 25.01 19.1 66.4 26 -0.8 30.6
23:50 1018 30.06 847 25.01 19.3 66.7 26 -0.6 30.9
23:55 1018 30.06 847 25.01 19.2 66.5 27 -0.2 31.6
24:00 1018 30.06 847 25.01 19.2 66.6 26 -0.7 30.8